Time;durP1;ratioP1;P1;durP2;ratioP2;P2;SDS_P1;SDS_P2;PMS_P1;PMS_P2;Temp;Humidity;BMP_temperature;BMP_pressure;BME280_temperature;BME280_humidity;BME280_pressure;Samples;Min_cycle;Max_cycle;Signal;HPM_P1;HPM_P2
2022/06/28 00:00:30;;;;;;;4.47;4.07;;;;;;;;;;5115167;28;20020;-89
2022/06/28 00:02:57;;;;;;;4.45;4.07;;;;;;;;;;5115352;28;20028;-85
2022/06/28 00:05:23;;;;;;;4.60;3.97;;;;;;;;;;5114926;28;20095;-79
2022/06/28 00:07:49;;;;;;;5.05;4.43;;;;;;;;;;5097021;28;20055;-83
2022/06/28 00:10:15;;;;;;;4.32;3.92;;;;;;;;;;5115243;28;20522;-86
2022/06/28 00:12:42;;;;;;;4.75;4.28;;;;;;;;;;5114918;28;20063;-84
2022/06/28 00:17:55;;;;;;;5.22;4.70;;;;;;;;;;5114984;28;20073;-85
2022/06/28 00:20:21;;;;;;;6.78;5.00;;;;;;;;;;5114409;28;20385;-84
2022/06/28 00:22:47;;;;;;;4.88;4.38;;;;;;;;;;5114523;28;20030;-83
2022/06/28 00:25:13;;;;;;;5.18;4.70;;;;;;;;;;5113986;28;20030;-85
2022/06/28 00:27:39;;;;;;;5.65;4.70;;;;;;;;;;5096095;28;20451;-81
2022/06/28 00:30:06;;;;;;;5.82;4.45;;;;;;;;;;5114163;28;20020;-83
2022/06/28 00:32:32;;;;;;;4.95;4.55;;;;;;;;;;5114075;28;20063;-83
2022/06/28 00:34:59;;;;;;;5.38;4.15;;;;;;;;;;5114105;28;20015;-81
2022/06/28 00:37:25;;;;;;;4.68;4.25;;;;;;;;;;5095693;28;20031;-80
2022/06/28 00:39:51;;;;;;;4.80;4.25;;;;;;;;;;5113990;28;20027;-84
2022/06/28 00:42:17;;;;;;;4.95;4.55;;;;;;;;;;5113724;28;20113;-79
2022/06/28 00:44:43;;;;;;;5.10;4.25;;;;;;;;;;5114028;28;20016;-83
2022/06/28 00:47:09;;;;;;;5.25;4.45;;;;;;;;;;5095690;28;20482;-83
2022/06/28 00:49:40;;;;;;;4.72;4.05;;;;;;;;;;5113710;28;20051;-86
2022/06/28 00:52:07;;;;;;;5.10;4.60;;;;;;;;;;5113806;28;20393;-81
2022/06/28 00:54:33;;;;;;;4.43;4.03;;;;;;;;;;5113911;28;20019;-83
2022/06/28 00:56:59;;;;;;;4.40;4.00;;;;;;;;;;5114271;28;20099;-85
2022/06/28 00:59:25;;;;;;;5.50;5.00;;;;;;;;;;5113655;28;20019;-86
2022/06/28 01:01:51;;;;;;;4.75;4.35;;;;;;;;;;5113913;28;20027;-82
2022/06/28 01:04:18;;;;;;;5.50;4.43;;;;;;;;;;5113614;28;20016;-82
2022/06/28 01:06:45;;;;;;;6.05;4.10;;;;;;;;;;5113581;28;20053;-85
2022/06/28 01:09:11;;;;;;;7.00;4.47;;;;;;;;;;5113548;28;20374;-80
2022/06/28 01:11:37;;;;;;;4.60;4.20;;;;;;;;;;5113406;28;20016;-81
2022/06/28 01:14:06;;;;;;;6.75;4.20;;;;;;;;;;5113968;28;20069;-80
2022/06/28 01:16:33;;;;;;;4.88;4.47;;;;;;;;;;5113728;28;20016;-86
2022/06/28 01:18:59;;;;;;;4.88;3.95;;;;;;;;;;5113910;28;20049;-85
2022/06/28 01:21:27;;;;;;;5.68;5.10;;;;;;;;;;5113594;28;20120;-82
2022/06/28 01:23:54;;;;;;;4.72;4.32;;;;;;;;;;5113823;28;20028;-84
2022/06/28 01:26:20;;;;;;;5.88;4.57;;;;;;;;;;5113997;28;20031;-85
2022/06/28 01:28:47;;;;;;;5.63;5.07;;;;;;;;;;5114032;28;20027;-81
2022/06/28 01:31:13;;;;;;;5.53;4.70;;;;;;;;;;5113696;28;20050;-82
2022/06/28 01:33:40;;;;;;;5.38;4.53;;;;;;;;;;5113483;28;20032;-85
2022/06/28 01:36:07;;;;;;;4.90;4.32;;;;;;;;;;5113340;28;20076;-85
2022/06/28 01:38:33;;;;;;;4.90;4.40;;;;;;;;;;5113366;28;20027;-82
2022/06/28 01:40:59;;;;;;;4.78;4.38;;;;;;;;;;5095394;28;20398;-80
2022/06/28 01:43:27;;;;;;;5.53;4.70;;;;;;;;;;5095040;28;20016;-85
2022/06/28 01:45:53;;;;;;;4.65;4.25;;;;;;;;;;5113518;28;20024;-81
2022/06/28 01:48:20;;;;;;;4.63;4.03;;;;;;;;;;5113388;28;20023;-84
2022/06/28 01:50:52;;;;;;;4.70;4.30;;;;;;;;;;5094880;28;20554;-86
2022/06/28 01:53:18;;;;;;;4.65;4.03;;;;;;;;;;5113347;28;20023;-85
2022/06/28 01:55:44;;;;;;;4.57;4.18;;;;;;;;;;5112769;28;20030;-79
2022/06/28 01:58:10;;;;;;;5.18;4.68;;;;;;;;;;5113324;28;20102;-82
2022/06/28 02:00:37;;;;;;;4.38;3.97;;;;;;;;;;5112702;28;20020;-78
2022/06/28 02:03:03;;;;;;;4.53;4.22;;;;;;;;;;5112801;28;20031;-79
2022/06/28 02:05:30;;;;;;;5.10;4.60;;;;;;;;;;5112579;28;20020;-84
2022/06/28 02:07:56;;;;;;;5.95;4.28;;;;;;;;;;5112748;28;20058;-80
2022/06/28 02:10:22;;;;;;;4.68;4.28;;;;;;;;;;5112707;28;20488;-83
2022/06/28 02:12:48;;;;;;;4.93;4.28;;;;;;;;;;5113142;28;20023;-82
2022/06/28 02:15:15;;;;;;;4.70;4.25;;;;;;;;;;5113112;28;20019;-83
2022/06/28 02:17:42;;;;;;;5.03;4.63;;;;;;;;;;5112858;28;20027;-87
2022/06/28 02:20:08;;;;;;;5.22;4.72;;;;;;;;;;5113218;28;20023;-83
2022/06/28 02:22:34;;;;;;;5.63;4.95;;;;;;;;;;5112776;28;20024;-85
2022/06/28 02:25:01;;;;;;;4.93;4.53;;;;;;;;;;5112972;28;20032;-84
2022/06/28 02:27:27;;;;;;;5.55;4.95;;;;;;;;;;5112987;28;20030;-83
2022/06/28 02:29:53;;;;;;;5.38;4.88;;;;;;;;;;5112823;28;20028;-82
2022/06/28 02:32:19;;;;;;;5.03;4.53;;;;;;;;;;5112772;28;20036;-84
2022/06/28 02:43:01;;;;;;;6.63;5.00;;;;;;;;;;5112802;28;20135;-84
2022/06/28 02:45:32;;;;;;;5.68;5.18;;;;;;;;;;5113135;28;20453;-83
2022/06/28 02:47:58;;;;;;;5.88;5.00;;;;;;;;;;5112599;28;20011;-79
2022/06/28 02:50:24;;;;;;;6.00;5.13;;;;;;;;;;5112807;28;20034;-87
2022/06/28 02:52:51;;;;;;;5.57;5.00;;;;;;;;;;5112543;28;20028;-82
2022/06/28 02:55:17;;;;;;;6.07;5.47;;;;;;;;;;5094508;28;20030;-80
2022/06/28 02:57:44;;;;;;;5.38;4.88;;;;;;;;;;5094645;28;20069;-86
2022/06/28 03:00:11;;;;;;;7.85;5.32;;;;;;;;;;5112582;28;20363;-86
2022/06/28 03:02:38;;;;;;;6.75;5.13;;;;;;;;;;5112687;28;20038;-83
2022/06/28 03:05:05;;;;;;;5.50;5.00;;;;;;;;;;5112328;28;20107;-83
2022/06/28 03:07:31;;;;;;;6.32;5.72;;;;;;;;;;5113709;28;20064;-81
2022/06/28 03:09:58;;;;;;;5.75;5.20;;;;;;;;;;5115950;28;20019;-82
2022/06/28 03:12:24;;;;;;;6.03;5.53;;;;;;;;;;5116153;28;20028;-84
2022/06/28 03:14:50;;;;;;;6.43;5.40;;;;;;;;;;5097903;28;20023;-87
2022/06/28 03:17:16;;;;;;;6.70;5.07;;;;;;;;;;5115824;28;20485;-80
2022/06/28 03:19:42;;;;;;;6.05;5.45;;;;;;;;;;5116099;28;20077;-85
2022/06/28 03:22:08;;;;;;;5.80;5.20;;;;;;;;;;5115479;28;20026;-80
2022/06/28 03:24:34;;;;;;;7.45;5.90;;;;;;;;;;5115679;28;20024;-85
2022/06/28 03:27:00;;;;;;;7.13;5.50;;;;;;;;;;5116023;28;20023;-82
2022/06/28 03:29:27;;;;;;;6.70;5.78;;;;;;;;;;5115863;28;20028;-82
2022/06/28 03:31:53;;;;;;;6.13;5.53;;;;;;;;;;5115848;28;20421;-81
2022/06/28 03:34:19;;;;;;;9.65;5.68;;;;;;;;;;5115881;28;20039;-85
2022/06/28 03:36:46;;;;;;;10.40;7.35;;;;;;;;;;5115669;28;20024;-78
2022/06/28 03:39:12;;;;;;;14.88;7.68;;;;;;;;;;5115546;28;20054;-79
2022/06/28 03:41:38;;;;;;;10.20;7.55;;;;;;;;;;5097184;28;20069;-87
2022/06/28 03:44:04;;;;;;;9.65;7.38;;;;;;;;;;5115201;28;20474;-82
2022/06/28 03:46:31;;;;;;;8.85;6.53;;;;;;;;;;5115312;28;20080;-82
2022/06/28 03:48:57;;;;;;;8.93;7.10;;;;;;;;;;5115481;28;20141;-82
2022/06/28 03:51:23;;;;;;;8.98;6.70;;;;;;;;;;5115198;28;20024;-86
2022/06/28 03:53:49;;;;;;;7.15;6.45;;;;;;;;;;5097018;28;20024;-85
2022/06/28 03:56:15;;;;;;;7.35;6.65;;;;;;;;;;5115183;28;20076;-86
2022/06/28 03:58:41;;;;;;;12.90;8.13;;;;;;;;;;5115358;28;20020;-83
2022/06/28 04:01:07;;;;;;;12.38;9.35;;;;;;;;;;5101235;28;20044;-80
2022/06/28 04:03:34;;;;;;;14.52;8.35;;;;;;;;;;5095006;28;20020;-88
2022/06/28 04:06:00;;;;;;;9.07;7.97;;;;;;;;;;5094645;28;20016;-89
2022/06/28 04:08:27;;;;;;;11.00;7.65;;;;;;;;;;5093996;28;20094;-79
2022/06/28 04:11:13;;;;;;;8.27;6.35;;;;;;;;;;5094185;28;20055;-78
2022/06/28 04:13:39;;;;;;;9.35;6.93;;;;;;;;;;5093919;28;20550;-79
2022/06/28 04:16:05;;;;;;;10.38;7.20;;;;;;;;;;5093859;28;20051;-79
2022/06/28 04:18:32;;;;;;;7.57;6.32;;;;;;;;;;5093202;28;20459;-78
2022/06/28 04:20:58;;;;;;;8.80;7.00;;;;;;;;;;5093880;28;20468;-81
2022/06/28 04:23:24;;;;;;;7.53;6.03;;;;;;;;;;5093894;28;20553;-80
2022/06/28 04:25:50;;;;;;;6.57;5.55;;;;;;;;;;5093913;28;20470;-78
2022/06/28 04:28:16;;;;;;;6.20;5.57;;;;;;;;;;5093636;28;20395;-78
2022/06/28 04:30:43;;;;;;;9.35;6.10;;;;;;;;;;5093747;28;20494;-81
2022/06/28 04:33:09;;;;;;;17.55;15.77;;;;;;;;;;5093397;28;20032;-78
2022/06/28 04:35:35;;;;;;;16.65;14.80;;;;;;;;;;5093612;28;20077;-81
2022/06/28 04:38:01;;;;;;;15.85;13.30;;;;;;;;;;5093840;28;20371;-79
2022/06/28 04:40:28;;;;;;;17.67;15.18;;;;;;;;;;5098844;28;20052;-78
2022/06/28 04:42:54;;;;;;;14.82;12.15;;;;;;;;;;5095776;28;20024;-78
2022/06/28 04:45:20;;;;;;;7.53;6.45;;;;;;;;;;5113637;28;20386;-79
2022/06/28 04:47:47;;;;;;;6.72;5.57;;;;;;;;;;5095594;28;20020;-81
2022/06/28 04:50:13;;;;;;;6.43;5.50;;;;;;;;;;5113699;28;20023;-80
2022/06/28 04:52:39;;;;;;;6.15;5.60;;;;;;;;;;5113248;28;20039;-78
2022/06/28 04:55:06;;;;;;;5.93;5.10;;;;;;;;;;5113553;28;20012;-81
2022/06/28 04:57:32;;;;;;;5.63;4.45;;;;;;;;;;5113478;28;20541;-81
2022/06/28 04:59:58;;;;;;;6.93;4.95;;;;;;;;;;5113530;28;20080;-77
2022/06/28 05:02:24;;;;;;;5.18;4.65;;;;;;;;;;5113398;28;20068;-82
2022/06/28 05:04:50;;;;;;;5.95;5.13;;;;;;;;;;5113380;28;20066;-79
2022/06/28 05:07:16;;;;;;;7.10;5.38;;;;;;;;;;5113284;28;20023;-82
2022/06/28 05:09:43;;;;;;;6.43;5.05;;;;;;;;;;5113388;28;20540;-80
2022/06/28 05:12:09;;;;;;;4.97;4.55;;;;;;;;;;5113164;28;20059;-80
2022/06/28 05:14:35;;;;;;;5.10;4.60;;;;;;;;;;5113164;28;20015;-82
2022/06/28 05:17:01;;;;;;;4.78;4.38;;;;;;;;;;5094389;28;20098;-83
2022/06/28 05:19:33;;;;;;;5.57;5.07;;;;;;;;;;5113089;28;20482;-79
2022/06/28 05:22:00;;;;;;;6.63;5.88;;;;;;;;;;5108795;28;20077;-79
2022/06/28 05:24:26;;;;;;;7.00;4.70;;;;;;;;;;5092482;28;20063;-84
2022/06/28 05:26:52;;;;;;;6.65;5.15;;;;;;;;;;5092681;28;20024;-78
2022/06/28 05:29:18;;;;;;;43.22;9.85;;;;;;;;;;5090897;28;20024;-79
2022/06/28 05:31:44;;;;;;;9.20;5.28;;;;;;;;;;5096210;28;20076;-81
2022/06/28 05:34:10;;;;;;;7.32;4.93;;;;;;;;;;5091256;28;20400;-82
2022/06/28 05:36:40;;;;;;;8.48;6.22;;;;;;;;;;5086859;28;20121;-82
2022/06/28 05:39:06;;;;;;;9.80;8.52;;;;;;;;;;5091494;28;20016;-84
2022/06/28 05:41:33;;;;;;;10.50;7.55;;;;;;;;;;5103303;28;20043;-82
2022/06/28 05:43:59;;;;;;;9.13;7.45;;;;;;;;;;5104402;28;20027;-85
2022/06/28 05:46:25;;;;;;;8.50;6.43;;;;;;;;;;5097890;28;20031;-82
2022/06/28 05:48:52;;;;;;;9.00;5.50;;;;;;;;;;5103145;28;20505;-84
2022/06/28 05:51:18;;;;;;;61.35;11.63;;;;;;;;;;5101976;28;20027;-84
2022/06/28 05:53:44;;;;;;;19.38;6.82;;;;;;;;;;5106718;28;20035;-84
2022/06/28 05:56:23;;;;;;;;;;;;;;;;;;;;;
2022/06/28 05:59:25;;;;;;;;;;;;;;;;;;;;;
2022/06/28 06:01:53;;;;;;;8.25;5.78;;;;;;;;;;5109640;28;20031;-88
2022/06/28 06:07:49;;;;;;;;;;;;;;;;;;;;;
2022/06/28 06:10:15;;;;;;;5.18;4.43;;;;;;;;;;5028185;28;20519;-82
2022/06/28 06:12:41;;;;;;;8.65;4.53;;;;;;;;;;5043904;28;20037;-81
2022/06/28 06:15:07;;;;;;;6.07;4.90;;;;;;;;;;5040398;28;20504;-86
2022/06/28 06:17:34;;;;;;;12.52;11.35;;;;;;;;;;5082733;28;20058;-86
2022/06/28 06:20:02;;;;;;;6.80;5.88;;;;;;;;;;5091821;28;20565;-86
2022/06/28 06:22:28;;;;;;;11.43;9.63;;;;;;;;;;5092622;28;20023;-84
2022/06/28 06:24:54;;;;;;;25.13;15.02;;;;;;;;;;5104220;28;20027;-84
2022/06/28 06:27:25;;;;;;;54.83;26.15;;;;;;;;;;5109038;28;20030;-85
2022/06/28 06:29:51;;;;;;;12.50;9.55;;;;;;;;;;5081387;28;20436;-86
2022/06/28 06:32:17;;;;;;;67.90;37.50;;;;;;;;;;5106152;28;20794;-84
2022/06/28 06:37:42;;;;;;;33.03;17.10;;;;;;;;;;5106565;28;20043;-85
2022/06/28 06:40:30;;;;;;;22.40;12.98;;;;;;;;;;5090993;28;20453;-88
2022/06/28 06:43:25;;;;;;;8.52;5.90;;;;;;;;;;5081955;28;20041;-86
2022/06/28 06:45:58;;;;;;;13.35;5.53;;;;;;;;;;5074778;28;20352;-87
2022/06/28 06:48:27;;;;;;;14.48;8.32;;;;;;;;;;5062812;28;20372;-88
2022/06/28 06:50:53;;;;;;;15.43;9.68;;;;;;;;;;5094207;28;20115;-85
2022/06/28 06:53:20;;;;;;;26.10;14.70;;;;;;;;;;5083890;28;20048;-86
2022/06/28 06:55:47;;;;;;;14.25;7.22;;;;;;;;;;5094388;28;20070;-83
2022/06/28 06:58:13;;;;;;;7.28;4.88;;;;;;;;;;5094136;28;20119;-84
2022/06/28 07:00:40;;;;;;;5.43;4.35;;;;;;;;;;5094455;28;20116;-85
2022/06/28 07:03:09;;;;;;;8.38;6.07;;;;;;;;;;5088388;28;20084;-87
2022/06/28 07:05:35;;;;;;;8.98;5.13;;;;;;;;;;5093558;28;20024;-87
2022/06/28 07:08:04;;;;;;;5.72;4.47;;;;;;;;;;5094293;28;20505;-88
2022/06/28 07:10:30;;;;;;;25.67;13.50;;;;;;;;;;5093052;28;20028;-81
2022/06/28 07:12:56;;;;;;;39.42;17.90;;;;;;;;;;5093411;28;20035;-86
2022/06/28 07:15:22;;;;;;;58.20;26.83;;;;;;;;;;5060083;28;20042;-84
2022/06/28 07:17:53;;;;;;;46.38;22.90;;;;;;;;;;5073531;28;20033;-88
2022/06/28 07:20:19;;;;;;;32.55;15.38;;;;;;;;;;5060396;28;20387;-83
2022/06/28 07:22:45;;;;;;;36.10;19.08;;;;;;;;;;5093764;28;20131;-84
2022/06/28 07:25:13;;;;;;;29.88;15.23;;;;;;;;;;5093280;28;20043;-84
2022/06/28 07:27:39;;;;;;;31.35;16.17;;;;;;;;;;5089039;28;20077;-83
2022/06/28 07:30:05;;;;;;;21.60;11.48;;;;;;;;;;5089382;28;20025;-83
2022/06/28 07:32:32;;;;;;;31.95;19.98;;;;;;;;;;5055433;28;20087;-87
2022/06/28 07:35:08;;;;;;;10.88;7.97;;;;;;;;;;5090720;28;20056;-84
2022/06/28 07:37:41;;;;;;;13.98;9.50;;;;;;;;;;5058444;28;20478;-87
2022/06/28 07:40:08;;;;;;;20.70;11.57;;;;;;;;;;5090161;28;20044;-83
2022/06/28 07:42:34;;;;;;;95.10;44.95;;;;;;;;;;5103187;28;20053;-83
2022/06/28 07:45:00;;;;;;;123.10;58.42;;;;;;;;;;5086742;28;20028;-80
2022/06/28 07:47:26;;;;;;;178.50;84.57;;;;;;;;;;5106812;28;20490;-83
2022/06/28 07:52:37;;;;;;;15.73;9.20;;;;;;;;;;5103708;28;20042;-80
2022/06/28 07:55:05;;;;;;;25.17;15.73;;;;;;;;;;5113485;28;20475;-81
2022/06/28 07:57:33;;;;;;;18.23;10.45;;;;;;;;;;5112544;28;20035;-83
2022/06/28 08:00:00;;;;;;;11.20;6.95;;;;;;;;;;5113687;28;20055;-83
2022/06/28 08:02:26;;;;;;;21.30;10.90;;;;;;;;;;5108937;28;21498;-82
2022/06/28 08:04:52;;;;;;;7.18;4.65;;;;;;;;;;5104916;28;20445;-83
2022/06/28 08:07:18;;;;;;;19.13;10.25;;;;;;;;;;5094782;28;20027;-84
2022/06/28 08:09:44;;;;;;;7.32;4.88;;;;;;;;;;5087274;28;20043;-81
2022/06/28 08:12:29;;;;;;;;;;;;;;;;;;;;;
2022/06/28 08:15:06;;;;;;;;;;;;;;;;;;;;;
2022/06/28 08:17:37;;;;;;;5.85;5.13;;;;;;;;;;5076346;28;20055;-87
2022/06/28 08:20:03;;;;;;;25.10;12.60;;;;;;;;;;5054498;28;20024;-83
2022/06/28 08:22:30;;;;;;;15.35;9.07;;;;;;;;;;5084658;28;20082;-86
2022/06/28 08:24:56;;;;;;;10.10;6.18;;;;;;;;;;5089120;28;20422;-82
2022/06/28 08:27:22;;;;;;;6.82;4.72;;;;;;;;;;5098779;28;20034;-87
2022/06/28 08:29:57;;;;;;;4.97;3.80;;;;;;;;;;5097444;28;20036;-85
2022/06/28 08:32:23;;;;;;;4.95;4.22;;;;;;;;;;5073471;28;20509;-83
2022/06/28 08:34:50;;;;;;;6.05;4.00;;;;;;;;;;5092447;28;20108;-83
2022/06/28 08:37:17;;;;;;;57.55;25.35;;;;;;;;;;5092063;28;20020;-85
2022/06/28 08:39:43;;;;;;;205.48;87.13;;;;;;;;;;5074837;28;20016;-86
2022/06/28 08:42:11;;;;;;;70.00;32.38;;;;;;;;;;5070089;28;20048;-84
2022/06/28 08:44:38;;;;;;;114.35;50.67;;;;;;;;;;5072058;28;20636;-86
2022/06/28 08:47:04;;;;;;;55.63;28.98;;;;;;;;;;5090246;28;20103;-84
2022/06/28 08:49:44;;;;;;;24.33;13.32;;;;;;;;;;5073984;28;20417;-75
2022/06/28 08:52:10;;;;;;;26.50;15.52;;;;;;;;;;5079607;28;20031;-77
2022/06/28 08:54:36;;;;;;;22.10;14.07;;;;;;;;;;5082857;28;20496;-83
2022/06/28 08:57:17;;;;;;;8.70;4.82;;;;;;;;;;5089893;28;20024;-85
2022/06/28 09:02:54;;;;;;;5.95;5.00;;;;;;;;;;5084289;28;20751;-82
2022/06/28 09:05:21;;;;;;;12.15;10.00;;;;;;;;;;5090608;28;20111;-83
2022/06/28 09:07:50;;;;;;;9.02;6.82;;;;;;;;;;5073795;28;20500;-83
2022/06/28 09:10:18;;;;;;;5.13;3.95;;;;;;;;;;5097281;28;20027;-85
2022/06/28 09:12:54;;;;;;;5.13;3.78;;;;;;;;;;5106825;28;20054;-84
2022/06/28 09:15:28;;;;;;;5.78;4.70;;;;;;;;;;5080222;28;20024;-82
2022/06/28 09:18:06;;;;;;;5.50;4.00;;;;;;;;;;5082722;28;20482;-81
2022/06/28 09:20:37;;;;;;;4.15;3.75;;;;;;;;;;5110950;28;20031;-82
2022/06/28 09:23:03;;;;;;;4.60;3.95;;;;;;;;;;5112146;28;20026;-84
2022/06/28 09:25:30;;;;;;;3.58;2.58;;;;;;;;;;5111659;28;20035;-82
2022/06/28 09:27:57;;;;;;;3.45;2.63;;;;;;;;;;5112303;28;20031;-85
2022/06/28 09:30:25;;;;;;;3.97;3.03;;;;;;;;;;5090755;28;20043;-81
2022/06/28 09:32:58;;;;;;;4.75;3.58;;;;;;;;;;5104017;28;20027;-83
2022/06/28 09:35:25;;;;;;;5.72;4.22;;;;;;;;;;5091968;28;20110;-82
2022/06/28 09:37:53;;;;;;;3.33;3.03;;;;;;;;;;5091285;28;20020;-77
2022/06/28 09:40:24;;;;;;;2.60;2.40;;;;;;;;;;5087037;28;20029;-78
2022/06/28 09:43:09;;;;;;;3.78;3.25;;;;;;;;;;5080986;28;20082;-78
2022/06/28 09:45:38;;;;;;;4.90;3.38;;;;;;;;;;5084880;28;20544;-78
2022/06/28 09:48:05;;;;;;;3.90;2.90;;;;;;;;;;5090462;28;20095;-77
2022/06/28 09:50:32;;;;;;;3.72;2.45;;;;;;;;;;5091030;28;20024;-77
2022/06/28 09:52:59;;;;;;;2.22;2.00;;;;;;;;;;5089198;28;20054;-78
2022/06/28 09:55:27;;;;;;;5.15;2.63;;;;;;;;;;5080477;28;20472;-78
2022/06/28 09:57:53;;;;;;;4.63;2.38;;;;;;;;;;5090502;28;20084;-78
2022/06/28 10:00:24;;;;;;;4.22;2.47;;;;;;;;;;5091011;28;20030;-78
2022/06/28 10:02:51;;;;;;;3.78;2.20;;;;;;;;;;5082240;28;21244;-77
2022/06/28 10:05:17;;;;;;;3.13;2.20;;;;;;;;;;5080567;28;20043;-79
2022/06/28 10:07:44;;;;;;;5.45;3.20;;;;;;;;;;5082296;28;20050;-79
2022/06/28 10:10:11;;;;;;;3.35;2.00;;;;;;;;;;5082972;28;20020;-80
2022/06/28 10:15:28;;;;;;;2.92;1.75;;;;;;;;;;5081360;28;20131;-78
2022/06/28 10:18:05;;;;;;;11.60;2.05;;;;;;;;;;5085361;28;20032;-85
2022/06/28 10:20:36;;;;;;;3.53;1.73;;;;;;;;;;5084311;28;20031;-80
2022/06/28 10:23:24;;;;;;;1.73;1.60;;;;;;;;;;5085009;28;20020;-79
2022/06/28 10:26:11;;;;;;;2.45;1.75;;;;;;;;;;5086052;28;20038;-81
2022/06/28 10:28:56;;;;;;;3.83;1.85;;;;;;;;;;5080940;28;20051;-81
2022/06/28 10:31:25;;;;;;;3.90;1.77;;;;;;;;;;5081092;28;20045;-83
2022/06/28 10:33:53;;;;;;;2.08;1.63;;;;;;;;;;5078492;28;20032;-80
2022/06/28 10:36:20;;;;;;;6.82;2.58;;;;;;;;;;5076592;28;20024;-81
2022/06/28 10:39:06;;;;;;;7.97;7.18;;;;;;;;;;5058045;28;20027;-77
2022/06/28 10:41:42;;;;;;;2.65;1.98;;;;;;;;;;5075704;28;20054;-83
2022/06/28 10:44:14;;;;;;;7.50;3.97;;;;;;;;;;5106771;28;20971;-83
2022/06/28 10:46:41;;;;;;;11.40;4.50;;;;;;;;;;5111999;28;20024;-80
2022/06/28 10:49:11;;;;;;;23.88;11.25;;;;;;;;;;5111208;27;20508;-83
2022/06/28 10:52:02;;;;;;;12.63;6.05;;;;;;;;;;5083101;28;20042;-84
2022/06/28 10:54:28;;;;;;;16.42;7.32;;;;;;;;;;5110064;27;20038;-80
2022/06/28 10:56:56;;;;;;;4.25;2.40;;;;;;;;;;5086413;28;20016;-86
2022/06/28 10:59:39;;;;;;;4.22;2.25;;;;;;;;;;5109133;28;20024;-80
2022/06/28 11:02:05;;;;;;;4.50;1.98;;;;;;;;;;5110214;28;20024;-78
2022/06/28 11:04:34;;;;;;;2.92;2.10;;;;;;;;;;5113546;28;20061;-82
2022/06/28 11:07:03;;;;;;;5.50;2.25;;;;;;;;;;5114052;28;20080;-81
2022/06/28 11:09:48;;;;;;;12.55;7.25;;;;;;;;;;5114747;28;20126;-84
2022/06/28 11:12:15;;;;;;;11.40;5.70;;;;;;;;;;5114547;28;20402;-81
2022/06/28 11:14:50;;;;;;;6.03;2.80;;;;;;;;;;5108332;27;20023;-80
2022/06/28 11:17:30;;;;;;;6.32;3.63;;;;;;;;;;5089394;28;20024;-83
2022/06/28 11:20:04;;;;;;;3.85;2.22;;;;;;;;;;5112282;28;20082;-78
2022/06/28 11:22:34;;;;;;;9.55;4.13;;;;;;;;;;5110871;28;20036;-84
2022/06/28 11:25:02;;;;;;;15.75;8.25;;;;;;;;;;5104839;28;20051;-82
2022/06/28 11:27:28;;;;;;;9.07;4.28;;;;;;;;;;5092628;28;20055;-87
2022/06/28 11:29:56;;;;;;;3.38;1.90;;;;;;;;;;5087853;28;20024;-88
2022/06/28 11:35:25;;;;;;;7.50;4.13;;;;;;;;;;5076075;28;20028;-84
2022/06/28 11:37:55;;;;;;;4.95;2.97;;;;;;;;;;5106924;28;20023;-82
2022/06/28 11:40:25;;;;;;;8.73;4.50;;;;;;;;;;5091246;28;20459;-82
2022/06/28 11:43:08;;;;;;;3.72;2.40;;;;;;;;;;5091138;28;20097;-85
2022/06/28 11:45:54;;;;;;;3.97;2.95;;;;;;;;;;5094123;28;20027;-82
2022/06/28 11:48:23;;;;;;;5.25;3.45;;;;;;;;;;5073148;28;20032;-83
2022/06/28 11:51:21;;;;;;;;;;;;;;;;;;;;;
2022/06/28 11:56:57;;;;;;;2.63;2.38;;;;;;;;;;5060302;28;20024;-78
2022/06/28 11:59:42;;;;;;;3.08;2.08;;;;;;;;;;5094011;28;20028;-82
2022/06/28 12:02:08;;;;;;;3.42;1.95;;;;;;;;;;5075303;28;20035;-83
2022/06/28 12:04:34;;;;;;;3.05;2.00;;;;;;;;;;5106264;28;20028;-82
2022/06/28 12:07:00;;;;;;;2.80;1.58;;;;;;;;;;5107327;28;20028;-80
2022/06/28 12:09:26;;;;;;;3.08;2.13;;;;;;;;;;5082735;28;20063;-79
2022/06/28 12:11:53;;;;;;;2.30;1.95;;;;;;;;;;5083769;28;20017;-81
2022/06/28 12:14:30;;;;;;;3.70;2.17;;;;;;;;;;5085820;28;20032;-82
2022/06/28 12:16:56;;;;;;;2.28;1.90;;;;;;;;;;5112051;28;20020;-82
2022/06/28 12:19:26;;;;;;;3.33;1.52;;;;;;;;;;5088879;28;20028;-79
2022/06/28 12:22:02;;;;;;;1.95;1.48;;;;;;;;;;5093210;28;20020;-80
2022/06/28 12:24:39;;;;;;;6.70;3.28;;;;;;;;;;5091872;28;20433;-80
2022/06/28 12:27:05;;;;;;;7.30;2.47;;;;;;;;;;5083261;28;20028;-79
2022/06/28 12:29:31;;;;;;;5.28;2.20;;;;;;;;;;5078006;28;20025;-83
2022/06/28 12:32:00;;;;;;;2.50;1.75;;;;;;;;;;5077032;28;20027;-81
2022/06/28 12:34:26;;;;;;;1.98;1.65;;;;;;;;;;5088602;28;20028;-79
2022/06/28 12:36:57;;;;;;;6.85;2.88;;;;;;;;;;5110595;28;20023;-80
2022/06/28 12:39:26;;;;;;;4.28;2.50;;;;;;;;;;5113478;28;20153;-85
2022/06/28 12:42:04;;;;;;;15.20;7.85;;;;;;;;;;5095888;28;20407;-83
2022/06/28 12:44:30;;;;;;;7.07;3.50;;;;;;;;;;5113451;28;20032;-85
2022/06/28 12:46:57;;;;;;;7.80;3.70;;;;;;;;;;5095198;28;20023;-87
2022/06/28 12:49:32;;;;;;;3.97;2.67;;;;;;;;;;5113580;28;20027;-83
2022/06/28 12:51:58;;;;;;;2.63;1.58;;;;;;;;;;5104811;28;20070;-85
2022/06/28 12:54:24;;;;;;;2.80;1.38;;;;;;;;;;5090227;28;20031;-84
2022/06/28 12:56:53;;;;;;;2.47;1.50;;;;;;;;;;5109456;28;20023;-81
2022/06/28 12:59:20;;;;;;;5.93;2.97;;;;;;;;;;5112086;28;20477;-80
2022/06/28 13:01:46;;;;;;;15.00;8.40;;;;;;;;;;5093508;28;20065;-83
2022/06/28 13:04:13;;;;;;;14.63;7.93;;;;;;;;;;5095086;28;20028;-80
2022/06/28 13:06:42;;;;;;;24.73;12.15;;;;;;;;;;5113342;28;20061;-86
2022/06/28 13:09:09;;;;;;;26.23;22.25;;;;;;;;;;5113031;28;20028;-81
2022/06/28 13:11:36;;;;;;;29.02;22.27;;;;;;;;;;5113723;28;20046;-80
2022/06/28 13:14:02;;;;;;;16.30;14.57;;;;;;;;;;5113368;28;20031;-77
2022/06/28 13:16:28;;;;;;;9.13;5.47;;;;;;;;;;5113059;28;20027;-80
2022/06/28 13:18:55;;;;;;;7.38;4.53;;;;;;;;;;5113045;28;20027;-79
2022/06/28 13:21:21;;;;;;;20.15;10.05;;;;;;;;;;5112862;28;20035;-84
2022/06/28 13:23:48;;;;;;;3.97;2.00;;;;;;;;;;5113366;28;20098;-80
2022/06/28 13:26:15;;;;;;;2.30;1.40;;;;;;;;;;5094185;28;20027;-80
2022/06/28 13:28:41;;;;;;;2.30;1.45;;;;;;;;;;5113101;28;20061;-80
2022/06/28 13:31:07;;;;;;;2.10;1.73;;;;;;;;;;5112699;28;20019;-79
2022/06/28 13:33:34;;;;;;;3.00;2.30;;;;;;;;;;5112471;28;20027;-80
2022/06/28 13:36:00;;;;;;;2.13;1.70;;;;;;;;;;5095159;28;20076;-80
2022/06/28 13:38:26;;;;;;;2.78;1.50;;;;;;;;;;5094486;28;20382;-79
2022/06/28 13:40:52;;;;;;;2.70;1.45;;;;;;;;;;5113095;28;20050;-79
2022/06/28 13:43:34;;;;;;;3.42;1.70;;;;;;;;;;5094567;28;20077;-83
2022/06/28 13:46:00;;;;;;;2.85;1.83;;;;;;;;;;5112838;28;20095;-79
2022/06/28 13:48:26;;;;;;;2.90;1.80;;;;;;;;;;5094321;28;20070;-80
2022/06/28 13:50:52;;;;;;;3.13;1.98;;;;;;;;;;5112150;28;20019;-80
2022/06/28 13:53:19;;;;;;;2.55;1.50;;;;;;;;;;5112469;28;20023;-81
2022/06/28 13:55:46;;;;;;;1.92;1.50;;;;;;;;;;5094844;28;20039;-80
2022/06/28 13:58:15;;;;;;;4.30;1.70;;;;;;;;;;5112611;28;20462;-80
2022/06/28 14:00:42;;;;;;;3.65;2.08;;;;;;;;;;5113162;28;20457;-80
2022/06/28 14:03:10;;;;;;;3.40;3.10;;;;;;;;;;5094337;28;20493;-79
2022/06/28 14:05:36;;;;;;;3.03;2.10;;;;;;;;;;5112480;28;20031;-77
2022/06/28 14:08:02;;;;;;;2.65;1.85;;;;;;;;;;5112613;28;20019;-78
2022/06/28 14:10:29;;;;;;;1.60;1.50;;;;;;;;;;5112238;28;20035;-80
2022/06/28 14:12:56;;;;;;;2.88;1.60;;;;;;;;;;5112444;28;20491;-78
2022/06/28 14:15:22;;;;;;;2.95;1.67;;;;;;;;;;5111837;28;20390;-78
2022/06/28 14:17:49;;;;;;;3.65;1.40;;;;;;;;;;5112200;28;20024;-80
2022/06/28 14:20:15;;;;;;;3.03;1.60;;;;;;;;;;5112285;28;20108;-79
2022/06/28 14:22:41;;;;;;;3.03;1.63;;;;;;;;;;5112267;28;20052;-82
2022/06/28 14:25:07;;;;;;;3.50;1.80;;;;;;;;;;5112139;28;20032;-79
2022/06/28 14:27:33;;;;;;;4.22;1.58;;;;;;;;;;5112171;28;20024;-79
2022/06/28 14:30:00;;;;;;;4.40;1.70;;;;;;;;;;5112387;28;20034;-79
2022/06/28 14:32:26;;;;;;;2.95;1.90;;;;;;;;;;5112051;28;20077;-81
2022/06/28 14:34:52;;;;;;;2.67;1.77;;;;;;;;;;5112640;28;20119;-79
2022/06/28 14:37:18;;;;;;;3.95;2.00;;;;;;;;;;5112040;28;20026;-79
2022/06/28 14:39:44;;;;;;;4.30;3.95;;;;;;;;;;5112435;28;20028;-81
2022/06/28 14:42:12;;;;;;;3.63;2.20;;;;;;;;;;5112250;28;20055;-80
2022/06/28 14:44:38;;;;;;;4.07;1.90;;;;;;;;;;5112385;28;20058;-78
2022/06/28 14:47:04;;;;;;;3.50;2.15;;;;;;;;;;5112343;28;20028;-81
2022/06/28 14:49:31;;;;;;;4.75;1.73;;;;;;;;;;5111935;28;20031;-78
2022/06/28 14:51:58;;;;;;;2.95;1.63;;;;;;;;;;5112208;28;20019;-79
2022/06/28 14:54:24;;;;;;;3.30;2.10;;;;;;;;;;5111889;28;20073;-80
2022/06/28 14:56:50;;;;;;;2.45;2.08;;;;;;;;;;5112092;28;20019;-78
2022/06/28 14:59:16;;;;;;;3.05;2.17;;;;;;;;;;5111979;28;20077;-81
2022/06/28 15:01:45;;;;;;;3.15;2.30;;;;;;;;;;5112044;28;20027;-79
2022/06/28 15:04:11;;;;;;;2.92;2.10;;;;;;;;;;5097518;28;20398;-77
2022/06/28 15:06:38;;;;;;;1.73;1.63;;;;;;;;;;5115656;28;20035;-79
2022/06/28 15:09:04;;;;;;;3.03;2.45;;;;;;;;;;5115787;28;20026;-80
2022/06/28 15:11:30;;;;;;;2.65;2.13;;;;;;;;;;5115545;28;20027;-78
2022/06/28 15:13:56;;;;;;;2.10;1.75;;;;;;;;;;5115503;28;20019;-81
2022/06/28 15:16:23;;;;;;;2.28;1.95;;;;;;;;;;5115471;28;20047;-78
2022/06/28 15:18:49;;;;;;;3.38;2.40;;;;;;;;;;5115759;28;20024;-81
2022/06/28 15:32:14;;;;;;;2.45;1.88;;;;;;;;;;5115366;28;20454;-82